sensor_id;sensor_type;location;lat;lon;timestamp;P1;durP1;ratioP1;P2;durP2;ratioP2
6513;SDS011;3290;47.716;9.070;2022-12-07T00:01:10;50.80;;;23.90;;
6513;SDS011;3290;47.716;9.070;2022-12-07T00:03:38;44.10;;;21.57;;
6513;SDS011;3290;47.716;9.070;2022-12-07T00:06:05;48.53;;;24.00;;
6513;SDS011;3290;47.716;9.070;2022-12-07T00:08:33;43.87;;;21.70;;
6513;SDS011;3290;47.716;9.070;2022-12-07T00:13:29;42.80;;;22.03;;
6513;SDS011;3290;47.716;9.070;2022-12-07T00:15:55;45.33;;;22.20;;
6513;SDS011;3290;47.716;9.070;2022-12-07T00:18:20;49.40;;;22.97;;
6513;SDS011;3290;47.716;9.070;2022-12-07T00:20:46;48.37;;;23.23;;
6513;SDS011;3290;47.716;9.070;2022-12-07T00:23:11;47.37;;;21.80;;
6513;SDS011;3290;47.716;9.070;2022-12-07T00:25:36;42.43;;;21.23;;
6513;SDS011;3290;47.716;9.070;2022-12-07T00:28:02;50.00;;;22.90;;
6513;SDS011;3290;47.716;9.070;2022-12-07T00:30:27;50.73;;;22.17;;
6513;SDS011;3290;47.716;9.070;2022-12-07T00:32:53;47.20;;;23.30;;
6513;SDS011;3290;47.716;9.070;2022-12-07T00:35:18;47.17;;;23.80;;
6513;SDS011;3290;47.716;9.070;2022-12-07T00:37:43;48.03;;;24.43;;
6513;SDS011;3290;47.716;9.070;2022-12-07T00:40:09;45.43;;;22.70;;
6513;SDS011;3290;47.716;9.070;2022-12-07T00:42:34;44.73;;;21.57;;
6513;SDS011;3290;47.716;9.070;2022-12-07T00:45:00;49.70;;;23.90;;
6513;SDS011;3290;47.716;9.070;2022-12-07T00:47:25;45.90;;;21.80;;
6513;SDS011;3290;47.716;9.070;2022-12-07T00:49:50;48.37;;;22.47;;
6513;SDS011;3290;47.716;9.070;2022-12-07T00:52:16;45.50;;;23.27;;
6513;SDS011;3290;47.716;9.070;2022-12-07T00:54:41;46.57;;;22.33;;
6513;SDS011;3290;47.716;9.070;2022-12-07T00:57:06;46.57;;;21.90;;
6513;SDS011;3290;47.716;9.070;2022-12-07T00:59:32;46.23;;;21.83;;
6513;SDS011;3290;47.716;9.070;2022-12-07T01:01:57;44.33;;;23.00;;
6513;SDS011;3290;47.716;9.070;2022-12-07T01:04:23;41.70;;;22.10;;
6513;SDS011;3290;47.716;9.070;2022-12-07T01:06:48;46.60;;;22.30;;
6513;SDS011;3290;47.716;9.070;2022-12-07T01:09:13;47.20;;;21.67;;
6513;SDS011;3290;47.716;9.070;2022-12-07T01:11:39;42.03;;;21.23;;
6513;SDS011;3290;47.716;9.070;2022-12-07T01:14:04;44.80;;;23.20;;
6513;SDS011;3290;47.716;9.070;2022-12-07T01:16:30;43.00;;;20.27;;
6513;SDS011;3290;47.716;9.070;2022-12-07T01:18:57;49.53;;;22.93;;
6513;SDS011;3290;47.716;9.070;2022-12-07T01:21:24;43.80;;;22.40;;
6513;SDS011;3290;47.716;9.070;2022-12-07T01:23:53;52.07;;;21.40;;
6513;SDS011;3290;47.716;9.070;2022-12-07T01:26:20;45.47;;;22.07;;
6513;SDS011;3290;47.716;9.070;2022-12-07T01:28:47;49.30;;;24.20;;
6513;SDS011;3290;47.716;9.070;2022-12-07T01:31:14;39.50;;;22.20;;
6513;SDS011;3290;47.716;9.070;2022-12-07T01:33:41;43.07;;;23.47;;
6513;SDS011;3290;47.716;9.070;2022-12-07T01:36:18;43.03;;;22.30;;
6513;SDS011;3290;47.716;9.070;2022-12-07T01:39:05;47.80;;;23.90;;
6513;SDS011;3290;47.716;9.070;2022-12-07T01:41:33;49.43;;;23.23;;
6513;SDS011;3290;47.716;9.070;2022-12-07T01:46:37;54.07;;;25.27;;
6513;SDS011;3290;47.716;9.070;2022-12-07T01:49:04;56.17;;;25.20;;
6513;SDS011;3290;47.716;9.070;2022-12-07T01:51:33;50.13;;;24.30;;
6513;SDS011;3290;47.716;9.070;2022-12-07T01:54:00;54.70;;;24.20;;
6513;SDS011;3290;47.716;9.070;2022-12-07T01:56:26;52.40;;;25.47;;
6513;SDS011;3290;47.716;9.070;2022-12-07T01:58:54;56.10;;;24.70;;
6513;SDS011;3290;47.716;9.070;2022-12-07T02:01:21;54.00;;;25.87;;
6513;SDS011;3290;47.716;9.070;2022-12-07T02:03:47;50.50;;;25.23;;
6513;SDS011;3290;47.716;9.070;2022-12-07T02:06:15;48.07;;;24.30;;
6513;SDS011;3290;47.716;9.070;2022-12-07T02:08:44;48.23;;;24.77;;
6513;SDS011;3290;47.716;9.070;2022-12-07T02:11:11;56.13;;;26.43;;
6513;SDS011;3290;47.716;9.070;2022-12-07T02:13:37;54.00;;;25.70;;
6513;SDS011;3290;47.716;9.070;2022-12-07T02:18:55;54.83;;;25.00;;
6513;SDS011;3290;47.716;9.070;2022-12-07T02:24:25;47.67;;;25.50;;
6513;SDS011;3290;47.716;9.070;2022-12-07T02:34:48;52.37;;;22.70;;
6513;SDS011;3290;47.716;9.070;2022-12-07T02:39:51;52.37;;;26.10;;
6513;SDS011;3290;47.716;9.070;2022-12-07T02:42:42;49.30;;;24.80;;
6513;SDS011;3290;47.716;9.070;2022-12-07T02:45:10;56.87;;;23.83;;
6513;SDS011;3290;47.716;9.070;2022-12-07T02:47:41;58.53;;;24.60;;
6513;SDS011;3290;47.716;9.070;2022-12-07T02:50:08;48.57;;;24.47;;
6513;SDS011;3290;47.716;9.070;2022-12-07T02:52:34;47.20;;;24.70;;
6513;SDS011;3290;47.716;9.070;2022-12-07T02:54:59;54.63;;;23.83;;
6513;SDS011;3290;47.716;9.070;2022-12-07T03:08:26;48.63;;;25.40;;
6513;SDS011;3290;47.716;9.070;2022-12-07T03:11:04;55.93;;;25.40;;
6513;SDS011;3290;47.716;9.070;2022-12-07T03:13:54;51.63;;;26.13;;
6513;SDS011;3290;47.716;9.070;2022-12-07T03:16:33;47.60;;;24.50;;
6513;SDS011;3290;47.716;9.070;2022-12-07T03:19:11;53.10;;;24.50;;
6513;SDS011;3290;47.716;9.070;2022-12-07T03:21:41;50.83;;;24.37;;
6513;SDS011;3290;47.716;9.070;2022-12-07T03:24:12;54.10;;;26.03;;
6513;SDS011;3290;47.716;9.070;2022-12-07T03:26:47;52.67;;;25.17;;
6513;SDS011;3290;47.716;9.070;2022-12-07T03:29:20;54.00;;;25.33;;
6513;SDS011;3290;47.716;9.070;2022-12-07T03:35:16;46.10;;;23.70;;
6513;SDS011;3290;47.716;9.070;2022-12-07T03:37:55;52.43;;;25.07;;
6513;SDS011;3290;47.716;9.070;2022-12-07T03:40:58;50.87;;;24.60;;
6513;SDS011;3290;47.716;9.070;2022-12-07T03:43:28;57.30;;;25.77;;
6513;SDS011;3290;47.716;9.070;2022-12-07T03:49:29;49.33;;;22.57;;
6513;SDS011;3290;47.716;9.070;2022-12-07T03:56:35;52.70;;;24.97;;
6513;SDS011;3290;47.716;9.070;2022-12-07T03:59:02;50.03;;;23.03;;
6513;SDS011;3290;47.716;9.070;2022-12-07T04:01:27;47.73;;;23.87;;
6513;SDS011;3290;47.716;9.070;2022-12-07T04:03:53;53.60;;;25.63;;
6513;SDS011;3290;47.716;9.070;2022-12-07T04:06:18;45.77;;;22.87;;
6513;SDS011;3290;47.716;9.070;2022-12-07T04:08:44;50.27;;;23.87;;
6513;SDS011;3290;47.716;9.070;2022-12-07T04:11:09;55.10;;;25.67;;
6513;SDS011;3290;47.716;9.070;2022-12-07T04:13:35;47.83;;;23.80;;
6513;SDS011;3290;47.716;9.070;2022-12-07T04:16:20;54.10;;;24.27;;
6513;SDS011;3290;47.716;9.070;2022-12-07T04:18:46;58.67;;;25.87;;
6513;SDS011;3290;47.716;9.070;2022-12-07T04:21:11;52.17;;;24.40;;
6513;SDS011;3290;47.716;9.070;2022-12-07T04:23:36;58.07;;;26.40;;
6513;SDS011;3290;47.716;9.070;2022-12-07T04:26:02;53.43;;;26.37;;
6513;SDS011;3290;47.716;9.070;2022-12-07T04:28:27;54.63;;;25.70;;
6513;SDS011;3290;47.716;9.070;2022-12-07T04:30:52;61.03;;;27.47;;
6513;SDS011;3290;47.716;9.070;2022-12-07T04:33:18;58.50;;;26.83;;
6513;SDS011;3290;47.716;9.070;2022-12-07T04:35:43;54.83;;;25.43;;
6513;SDS011;3290;47.716;9.070;2022-12-07T04:38:08;54.93;;;27.07;;
6513;SDS011;3290;47.716;9.070;2022-12-07T04:40:34;57.93;;;26.13;;
6513;SDS011;3290;47.716;9.070;2022-12-07T04:42:59;58.87;;;26.33;;
6513;SDS011;3290;47.716;9.070;2022-12-07T04:45:25;61.20;;;26.50;;
6513;SDS011;3290;47.716;9.070;2022-12-07T04:47:50;57.07;;;27.03;;
6513;SDS011;3290;47.716;9.070;2022-12-07T04:50:15;57.17;;;26.10;;
6513;SDS011;3290;47.716;9.070;2022-12-07T04:52:41;54.13;;;24.07;;
6513;SDS011;3290;47.716;9.070;2022-12-07T04:55:06;53.00;;;25.27;;
6513;SDS011;3290;47.716;9.070;2022-12-07T04:57:32;63.30;;;26.13;;
6513;SDS011;3290;47.716;9.070;2022-12-07T04:59:58;57.43;;;27.80;;
6513;SDS011;3290;47.716;9.070;2022-12-07T05:02:23;66.80;;;26.63;;
6513;SDS011;3290;47.716;9.070;2022-12-07T05:04:48;60.07;;;27.60;;
6513;SDS011;3290;47.716;9.070;2022-12-07T05:07:14;59.17;;;27.60;;
6513;SDS011;3290;47.716;9.070;2022-12-07T05:09:39;56.90;;;25.53;;
6513;SDS011;3290;47.716;9.070;2022-12-07T05:12:04;73.23;;;25.93;;
6513;SDS011;3290;47.716;9.070;2022-12-07T05:14:30;54.80;;;24.10;;
6513;SDS011;3290;47.716;9.070;2022-12-07T05:16:55;57.47;;;27.67;;
6513;SDS011;3290;47.716;9.070;2022-12-07T05:19:20;62.47;;;27.63;;
6513;SDS011;3290;47.716;9.070;2022-12-07T05:21:46;59.87;;;26.30;;
6513;SDS011;3290;47.716;9.070;2022-12-07T05:24:13;62.37;;;27.10;;
6513;SDS011;3290;47.716;9.070;2022-12-07T05:26:40;63.83;;;27.70;;
6513;SDS011;3290;47.716;9.070;2022-12-07T05:29:07;62.50;;;26.50;;
6513;SDS011;3290;47.716;9.070;2022-12-07T05:31:32;62.83;;;26.40;;
6513;SDS011;3290;47.716;9.070;2022-12-07T05:33:59;61.87;;;27.40;;
6513;SDS011;3290;47.716;9.070;2022-12-07T05:36:24;63.43;;;27.40;;
6513;SDS011;3290;47.716;9.070;2022-12-07T05:38:49;65.63;;;27.90;;
6513;SDS011;3290;47.716;9.070;2022-12-07T05:41:16;85.53;;;29.87;;
6513;SDS011;3290;47.716;9.070;2022-12-07T05:44:01;66.33;;;28.80;;
6513;SDS011;3290;47.716;9.070;2022-12-07T05:46:27;68.77;;;28.90;;
6513;SDS011;3290;47.716;9.070;2022-12-07T05:48:53;62.20;;;27.20;;
6513;SDS011;3290;47.716;9.070;2022-12-07T05:51:18;67.37;;;27.97;;
6513;SDS011;3290;47.716;9.070;2022-12-07T05:53:44;57.93;;;25.80;;
6513;SDS011;3290;47.716;9.070;2022-12-07T05:56:09;64.77;;;26.10;;
6513;SDS011;3290;47.716;9.070;2022-12-07T05:58:35;60.13;;;28.53;;
6513;SDS011;3290;47.716;9.070;2022-12-07T06:01:19;56.17;;;26.90;;
6513;SDS011;3290;47.716;9.070;2022-12-07T06:03:44;61.80;;;27.20;;
6513;SDS011;3290;47.716;9.070;2022-12-07T06:06:10;64.33;;;27.60;;
6513;SDS011;3290;47.716;9.070;2022-12-07T06:08:35;61.70;;;26.53;;
6513;SDS011;3290;47.716;9.070;2022-12-07T06:11:01;65.57;;;27.40;;
6513;SDS011;3290;47.716;9.070;2022-12-07T06:13:45;62.87;;;26.20;;
6513;SDS011;3290;47.716;9.070;2022-12-07T06:16:10;64.27;;;28.57;;
6513;SDS011;3290;47.716;9.070;2022-12-07T06:18:35;57.20;;;27.03;;
6513;SDS011;3290;47.716;9.070;2022-12-07T06:21:01;55.10;;;23.10;;
6513;SDS011;3290;47.716;9.070;2022-12-07T06:23:26;53.47;;;24.80;;
6513;SDS011;3290;47.716;9.070;2022-12-07T06:25:51;62.37;;;26.43;;
6513;SDS011;3290;47.716;9.070;2022-12-07T06:28:17;54.60;;;25.50;;
6513;SDS011;3290;47.716;9.070;2022-12-07T06:30:42;56.83;;;26.47;;
6513;SDS011;3290;47.716;9.070;2022-12-07T06:33:07;48.00;;;25.40;;
6513;SDS011;3290;47.716;9.070;2022-12-07T06:35:33;52.57;;;23.33;;
6513;SDS011;3290;47.716;9.070;2022-12-07T06:37:58;54.30;;;27.03;;
6513;SDS011;3290;47.716;9.070;2022-12-07T06:40:24;55.00;;;26.10;;
6513;SDS011;3290;47.716;9.070;2022-12-07T06:42:49;54.63;;;24.40;;
6513;SDS011;3290;47.716;9.070;2022-12-07T06:45:14;55.13;;;26.27;;
6513;SDS011;3290;47.716;9.070;2022-12-07T06:47:40;55.97;;;23.53;;
6513;SDS011;3290;47.716;9.070;2022-12-07T06:50:05;58.40;;;28.60;;
6513;SDS011;3290;47.716;9.070;2022-12-07T06:52:32;49.50;;;23.73;;
6513;SDS011;3290;47.716;9.070;2022-12-07T06:54:58;52.27;;;23.73;;
6513;SDS011;3290;47.716;9.070;2022-12-07T06:57:24;51.97;;;24.10;;
6513;SDS011;3290;47.716;9.070;2022-12-07T06:59:49;46.23;;;21.40;;
6513;SDS011;3290;47.716;9.070;2022-12-07T07:02:15;49.20;;;23.70;;
6513;SDS011;3290;47.716;9.070;2022-12-07T07:04:40;48.33;;;22.90;;
6513;SDS011;3290;47.716;9.070;2022-12-07T07:07:06;53.67;;;24.00;;
6513;SDS011;3290;47.716;9.070;2022-12-07T07:09:31;47.67;;;22.33;;
6513;SDS011;3290;47.716;9.070;2022-12-07T07:11:56;54.27;;;22.90;;
6513;SDS011;3290;47.716;9.070;2022-12-07T07:14:22;49.33;;;23.30;;
6513;SDS011;3290;47.716;9.070;2022-12-07T07:16:47;49.60;;;24.00;;
6513;SDS011;3290;47.716;9.070;2022-12-07T07:19:12;56.57;;;25.20;;
6513;SDS011;3290;47.716;9.070;2022-12-07T07:21:38;48.60;;;23.67;;
6513;SDS011;3290;47.716;9.070;2022-12-07T07:24:03;54.97;;;24.90;;
6513;SDS011;3290;47.716;9.070;2022-12-07T07:26:29;52.73;;;25.10;;
6513;SDS011;3290;47.716;9.070;2022-12-07T07:28:55;64.70;;;29.70;;
6513;SDS011;3290;47.716;9.070;2022-12-07T07:31:20;76.87;;;33.57;;
6513;SDS011;3290;47.716;9.070;2022-12-07T07:33:46;61.13;;;27.23;;
6513;SDS011;3290;47.716;9.070;2022-12-07T07:36:11;65.00;;;27.97;;
6513;SDS011;3290;47.716;9.070;2022-12-07T07:38:37;61.07;;;27.20;;
6513;SDS011;3290;47.716;9.070;2022-12-07T07:41:02;65.33;;;27.40;;
6513;SDS011;3290;47.716;9.070;2022-12-07T07:43:28;72.13;;;28.10;;
6513;SDS011;3290;47.716;9.070;2022-12-07T07:45:53;61.90;;;26.63;;
6513;SDS011;3290;47.716;9.070;2022-12-07T07:48:18;64.27;;;26.53;;
6513;SDS011;3290;47.716;9.070;2022-12-07T07:50:44;56.47;;;26.13;;
6513;SDS011;3290;47.716;9.070;2022-12-07T07:53:09;53.13;;;23.97;;
6513;SDS011;3290;47.716;9.070;2022-12-07T07:55:35;66.33;;;27.70;;
6513;SDS011;3290;47.716;9.070;2022-12-07T07:58:00;64.80;;;28.10;;
6513;SDS011;3290;47.716;9.070;2022-12-07T08:00:26;69.37;;;28.83;;
6513;SDS011;3290;47.716;9.070;2022-12-07T08:02:51;59.17;;;29.50;;
6513;SDS011;3290;47.716;9.070;2022-12-07T08:05:16;66.73;;;28.30;;
6513;SDS011;3290;47.716;9.070;2022-12-07T08:07:42;70.57;;;30.00;;
6513;SDS011;3290;47.716;9.070;2022-12-07T08:10:09;71.50;;;29.40;;
6513;SDS011;3290;47.716;9.070;2022-12-07T08:12:37;70.57;;;30.23;;
6513;SDS011;3290;47.716;9.070;2022-12-07T08:15:24;67.33;;;28.07;;
6513;SDS011;3290;47.716;9.070;2022-12-07T08:17:50;57.57;;;26.20;;
6513;SDS011;3290;47.716;9.070;2022-12-07T08:20:15;64.90;;;27.20;;
6513;SDS011;3290;47.716;9.070;2022-12-07T08:22:40;60.03;;;25.77;;
6513;SDS011;3290;47.716;9.070;2022-12-07T08:25:06;61.43;;;25.93;;
6513;SDS011;3290;47.716;9.070;2022-12-07T08:27:32;57.47;;;26.10;;
6513;SDS011;3290;47.716;9.070;2022-12-07T08:29:57;99.93;;;34.50;;
6513;SDS011;3290;47.716;9.070;2022-12-07T08:32:22;153.57;;;49.40;;
6513;SDS011;3290;47.716;9.070;2022-12-07T08:34:48;132.20;;;43.80;;
6513;SDS011;3290;47.716;9.070;2022-12-07T08:37:13;95.33;;;36.30;;
6513;SDS011;3290;47.716;9.070;2022-12-07T08:39:38;73.70;;;32.00;;
6513;SDS011;3290;47.716;9.070;2022-12-07T08:42:04;54.90;;;26.80;;
6513;SDS011;3290;47.716;9.070;2022-12-07T08:44:29;53.87;;;26.37;;
6513;SDS011;3290;47.716;9.070;2022-12-07T08:46:58;60.10;;;26.63;;
6513;SDS011;3290;47.716;9.070;2022-12-07T08:50:02;55.53;;;25.20;;
6513;SDS011;3290;47.716;9.070;2022-12-07T08:52:20;60.73;;;24.07;;
6513;SDS011;3290;47.716;9.070;2022-12-07T08:54:46;54.83;;;24.13;;
6513;SDS011;3290;47.716;9.070;2022-12-07T08:57:12;57.27;;;24.60;;
6513;SDS011;3290;47.716;9.070;2022-12-07T08:59:37;59.80;;;26.13;;
6513;SDS011;3290;47.716;9.070;2022-12-07T09:02:04;58.53;;;26.20;;
6513;SDS011;3290;47.716;9.070;2022-12-07T09:04:30;63.77;;;26.30;;
6513;SDS011;3290;47.716;9.070;2022-12-07T09:06:56;56.40;;;25.50;;
6513;SDS011;3290;47.716;9.070;2022-12-07T09:09:22;49.67;;;22.93;;
6513;SDS011;3290;47.716;9.070;2022-12-07T09:11:47;66.97;;;26.93;;
6513;SDS011;3290;47.716;9.070;2022-12-07T09:14:12;65.07;;;27.10;;
6513;SDS011;3290;47.716;9.070;2022-12-07T09:16:38;58.83;;;28.23;;
6513;SDS011;3290;47.716;9.070;2022-12-07T09:19:04;58.73;;;24.40;;
6513;SDS011;3290;47.716;9.070;2022-12-07T09:21:29;46.70;;;23.33;;
6513;SDS011;3290;47.716;9.070;2022-12-07T09:23:55;51.50;;;22.60;;
6513;SDS011;3290;47.716;9.070;2022-12-07T09:26:21;52.70;;;22.97;;
6513;SDS011;3290;47.716;9.070;2022-12-07T09:28:46;49.23;;;23.03;;
6513;SDS011;3290;47.716;9.070;2022-12-07T09:31:12;48.47;;;22.63;;
6513;SDS011;3290;47.716;9.070;2022-12-07T09:33:37;54.67;;;24.00;;
6513;SDS011;3290;47.716;9.070;2022-12-07T09:36:03;47.80;;;21.43;;
6513;SDS011;3290;47.716;9.070;2022-12-07T09:38:29;58.07;;;23.90;;
6513;SDS011;3290;47.716;9.070;2022-12-07T09:40:56;41.47;;;20.17;;
6513;SDS011;3290;47.716;9.070;2022-12-07T09:43:22;45.73;;;21.60;;
6513;SDS011;3290;47.716;9.070;2022-12-07T09:45:53;36.83;;;18.90;;
6513;SDS011;3290;47.716;9.070;2022-12-07T09:48:21;33.93;;;16.73;;
6513;SDS011;3290;47.716;9.070;2022-12-07T09:50:50;34.77;;;16.90;;
6513;SDS011;3290;47.716;9.070;2022-12-07T09:56:16;37.27;;;17.03;;
6513;SDS011;3290;47.716;9.070;2022-12-07T09:58:43;31.77;;;15.03;;
6513;SDS011;3290;47.716;9.070;2022-12-07T10:03:36;28.63;;;14.33;;
6513;SDS011;3290;47.716;9.070;2022-12-07T10:06:03;29.67;;;14.30;;
6513;SDS011;3290;47.716;9.070;2022-12-07T10:08:31;25.73;;;12.33;;
6513;SDS011;3290;47.716;9.070;2022-12-07T10:10:57;22.77;;;13.40;;
6513;SDS011;3290;47.716;9.070;2022-12-07T10:13:34;29.87;;;14.67;;
6513;SDS011;3290;47.716;9.070;2022-12-07T10:16:04;27.23;;;12.80;;
6513;SDS011;3290;47.716;9.070;2022-12-07T10:18:32;28.53;;;15.27;;
6513;SDS011;3290;47.716;9.070;2022-12-07T10:21:02;22.67;;;13.50;;
6513;SDS011;3290;47.716;9.070;2022-12-07T10:23:36;27.40;;;12.33;;
6513;SDS011;3290;47.716;9.070;2022-12-07T10:26:48;24.23;;;11.83;;
6513;SDS011;3290;47.716;9.070;2022-12-07T10:28:54;30.17;;;14.60;;
6513;SDS011;3290;47.716;9.070;2022-12-07T10:31:21;26.67;;;13.57;;
6513;SDS011;3290;47.716;9.070;2022-12-07T10:33:48;22.80;;;12.97;;
6513;SDS011;3290;47.716;9.070;2022-12-07T10:36:26;24.53;;;12.80;;
6513;SDS011;3290;47.716;9.070;2022-12-07T10:39:13;26.27;;;13.90;;
6513;SDS011;3290;47.716;9.070;2022-12-07T10:41:59;35.47;;;14.80;;
6513;SDS011;3290;47.716;9.070;2022-12-07T10:44:27;28.30;;;13.80;;
6513;SDS011;3290;47.716;9.070;2022-12-07T10:52:27;22.43;;;11.70;;
6513;SDS011;3290;47.716;9.070;2022-12-07T11:08:49;18.33;;;10.33;;
6513;SDS011;3290;47.716;9.070;2022-12-07T11:16:51;29.17;;;12.43;;
6513;SDS011;3290;47.716;9.070;2022-12-07T11:19:42;22.20;;;11.50;;
6513;SDS011;3290;47.716;9.070;2022-12-07T11:23:00;24.00;;;13.60;;
6513;SDS011;3290;47.716;9.070;2022-12-07T11:26:05;24.50;;;12.83;;
6513;SDS011;3290;47.716;9.070;2022-12-07T11:33:33;27.57;;;14.03;;
6513;SDS011;3290;47.716;9.070;2022-12-07T11:39:03;23.80;;;13.30;;
6513;SDS011;3290;47.716;9.070;2022-12-07T11:41:34;23.57;;;12.40;;
6513;SDS011;3290;47.716;9.070;2022-12-07T11:46:30;21.37;;;11.80;;
6513;SDS011;3290;47.716;9.070;2022-12-07T11:49:23;21.07;;;10.50;;
6513;SDS011;3290;47.716;9.070;2022-12-07T11:52:01;26.13;;;11.43;;
6513;SDS011;3290;47.716;9.070;2022-12-07T11:54:34;21.43;;;12.13;;
6513;SDS011;3290;47.716;9.070;2022-12-07T11:57:07;21.13;;;11.73;;
6513;SDS011;3290;47.716;9.070;2022-12-07T11:59:45;23.30;;;11.33;;
6513;SDS011;3290;47.716;9.070;2022-12-07T12:02:16;16.90;;;10.67;;
6513;SDS011;3290;47.716;9.070;2022-12-07T12:05:13;20.50;;;10.83;;
6513;SDS011;3290;47.716;9.070;2022-12-07T12:07:41;19.60;;;11.30;;
6513;SDS011;3290;47.716;9.070;2022-12-07T12:10:21;22.30;;;12.23;;
6513;SDS011;3290;47.716;9.070;2022-12-07T12:13:05;20.80;;;9.90;;
6513;SDS011;3290;47.716;9.070;2022-12-07T12:21:09;20.67;;;11.33;;
6513;SDS011;3290;47.716;9.070;2022-12-07T12:26:03;21.00;;;11.87;;
6513;SDS011;3290;47.716;9.070;2022-12-07T12:28:41;22.17;;;13.67;;
6513;SDS011;3290;47.716;9.070;2022-12-07T12:33:48;22.40;;;12.60;;
6513;SDS011;3290;47.716;9.070;2022-12-07T12:44:00;24.90;;;11.67;;
6513;SDS011;3290;47.716;9.070;2022-12-07T12:48:54;21.77;;;12.00;;
6513;SDS011;3290;47.716;9.070;2022-12-07T12:51:39;18.40;;;11.43;;
6513;SDS011;3290;47.716;9.070;2022-12-07T12:54:52;17.20;;;10.90;;
6513;SDS011;3290;47.716;9.070;2022-12-07T12:57:05;25.00;;;11.90;;
6513;SDS011;3290;47.716;9.070;2022-12-07T12:59:36;20.97;;;11.93;;
6513;SDS011;3290;47.716;9.070;2022-12-07T13:02:16;19.03;;;11.50;;
6513;SDS011;3290;47.716;9.070;2022-12-07T13:04:53;18.70;;;10.87;;
6513;SDS011;3290;47.716;9.070;2022-12-07T13:10:28;20.47;;;11.97;;
6513;SDS011;3290;47.716;9.070;2022-12-07T13:16:35;22.07;;;11.83;;
6513;SDS011;3290;47.716;9.070;2022-12-07T13:18:40;19.27;;;11.63;;
6513;SDS011;3290;47.716;9.070;2022-12-07T13:31:13;18.00;;;10.50;;
6513;SDS011;3290;47.716;9.070;2022-12-07T13:33:44;18.77;;;10.27;;
6513;SDS011;3290;47.716;9.070;2022-12-07T13:36:14;18.07;;;10.03;;
6513;SDS011;3290;47.716;9.070;2022-12-07T13:38:48;17.53;;;10.10;;
6513;SDS011;3290;47.716;9.070;2022-12-07T13:41:16;16.00;;;10.20;;
6513;SDS011;3290;47.716;9.070;2022-12-07T13:46:17;18.23;;;10.57;;
6513;SDS011;3290;47.716;9.070;2022-12-07T13:48:49;27.97;;;16.60;;
6513;SDS011;3290;47.716;9.070;2022-12-07T13:51:19;22.70;;;12.83;;
6513;SDS011;3290;47.716;9.070;2022-12-07T13:53:53;17.73;;;10.60;;
6513;SDS011;3290;47.716;9.070;2022-12-07T13:56:34;15.00;;;10.23;;
6513;SDS011;3290;47.716;9.070;2022-12-07T13:59:01;14.30;;;9.80;;
6513;SDS011;3290;47.716;9.070;2022-12-07T14:01:26;16.63;;;9.80;;
6513;SDS011;3290;47.716;9.070;2022-12-07T14:03:55;15.70;;;9.90;;
6513;SDS011;3290;47.716;9.070;2022-12-07T14:06:24;11.67;;;8.00;;
6513;SDS011;3290;47.716;9.070;2022-12-07T14:11:44;46.47;;;19.00;;
6513;SDS011;3290;47.716;9.070;2022-12-07T14:14:10;27.90;;;12.47;;
6513;SDS011;3290;47.716;9.070;2022-12-07T14:16:41;19.07;;;10.70;;
6513;SDS011;3290;47.716;9.070;2022-12-07T14:19:38;21.17;;;10.20;;
6513;SDS011;3290;47.716;9.070;2022-12-07T14:22:08;17.93;;;10.90;;
6513;SDS011;3290;47.716;9.070;2022-12-07T14:24:43;15.97;;;9.43;;
6513;SDS011;3290;47.716;9.070;2022-12-07T14:27:19;49.47;;;22.20;;
6513;SDS011;3290;47.716;9.070;2022-12-07T14:29:46;49.67;;;20.27;;
6513;SDS011;3290;47.716;9.070;2022-12-07T14:32:25;97.30;;;35.40;;
6513;SDS011;3290;47.716;9.070;2022-12-07T14:35:10;30.23;;;13.87;;
6513;SDS011;3290;47.716;9.070;2022-12-07T14:37:38;20.73;;;10.00;;
6513;SDS011;3290;47.716;9.070;2022-12-07T14:40:06;22.93;;;11.63;;
6513;SDS011;3290;47.716;9.070;2022-12-07T14:42:32;24.93;;;12.40;;
6513;SDS011;3290;47.716;9.070;2022-12-07T14:44:59;23.10;;;11.80;;
6513;SDS011;3290;47.716;9.070;2022-12-07T14:47:26;18.10;;;11.70;;
6513;SDS011;3290;47.716;9.070;2022-12-07T14:49:52;17.10;;;10.10;;
6513;SDS011;3290;47.716;9.070;2022-12-07T14:52:21;16.80;;;9.63;;
6513;SDS011;3290;47.716;9.070;2022-12-07T14:54:49;13.87;;;9.03;;
6513;SDS011;3290;47.716;9.070;2022-12-07T14:57:15;12.17;;;7.93;;
6513;SDS011;3290;47.716;9.070;2022-12-07T14:59:40;16.77;;;8.90;;
6513;SDS011;3290;47.716;9.070;2022-12-07T15:02:06;19.17;;;9.13;;
6513;SDS011;3290;47.716;9.070;2022-12-07T15:04:34;13.87;;;8.33;;
6513;SDS011;3290;47.716;9.070;2022-12-07T15:07:00;16.60;;;9.47;;
6513;SDS011;3290;47.716;9.070;2022-12-07T15:09:27;13.57;;;9.20;;
6513;SDS011;3290;47.716;9.070;2022-12-07T15:11:53;12.80;;;8.73;;
6513;SDS011;3290;47.716;9.070;2022-12-07T15:14:18;15.97;;;9.60;;
6513;SDS011;3290;47.716;9.070;2022-12-07T15:16:46;16.50;;;9.30;;
6513;SDS011;3290;47.716;9.070;2022-12-07T15:19:16;14.60;;;8.33;;
6513;SDS011;3290;47.716;9.070;2022-12-07T15:21:44;20.63;;;10.13;;
6513;SDS011;3290;47.716;9.070;2022-12-07T15:24:10;15.63;;;9.47;;
6513;SDS011;3290;47.716;9.070;2022-12-07T15:26:37;20.03;;;10.67;;
6513;SDS011;3290;47.716;9.070;2022-12-07T15:29:04;34.00;;;12.63;;
6513;SDS011;3290;47.716;9.070;2022-12-07T15:31:29;38.03;;;13.80;;
6513;SDS011;3290;47.716;9.070;2022-12-07T15:33:58;49.80;;;17.80;;
6513;SDS011;3290;47.716;9.070;2022-12-07T15:36:25;33.37;;;15.37;;
6513;SDS011;3290;47.716;9.070;2022-12-07T15:38:52;28.23;;;14.33;;
6513;SDS011;3290;47.716;9.070;2022-12-07T15:41:18;23.87;;;12.00;;
6513;SDS011;3290;47.716;9.070;2022-12-07T15:43:43;24.83;;;11.90;;
6513;SDS011;3290;47.716;9.070;2022-12-07T15:46:32;24.23;;;13.97;;
6513;SDS011;3290;47.716;9.070;2022-12-07T15:48:59;25.63;;;10.97;;
6513;SDS011;3290;47.716;9.070;2022-12-07T15:51:25;18.93;;;10.77;;
6513;SDS011;3290;47.716;9.070;2022-12-07T15:53:51;23.63;;;10.50;;
6513;SDS011;3290;47.716;9.070;2022-12-07T15:56:16;24.23;;;11.30;;
6513;SDS011;3290;47.716;9.070;2022-12-07T15:58:42;39.80;;;17.43;;
6513;SDS011;3290;47.716;9.070;2022-12-07T16:01:11;45.10;;;18.90;;
6513;SDS011;3290;47.716;9.070;2022-12-07T16:03:43;29.00;;;15.00;;
6513;SDS011;3290;47.716;9.070;2022-12-07T16:06:09;39.43;;;13.03;;
6513;SDS011;3290;47.716;9.070;2022-12-07T16:08:35;38.70;;;13.07;;
6513;SDS011;3290;47.716;9.070;2022-12-07T16:11:05;22.10;;;13.40;;
6513;SDS011;3290;47.716;9.070;2022-12-07T16:13:31;28.73;;;13.20;;
6513;SDS011;3290;47.716;9.070;2022-12-07T16:15:57;22.73;;;12.70;;
6513;SDS011;3290;47.716;9.070;2022-12-07T16:18:22;25.30;;;14.90;;
6513;SDS011;3290;47.716;9.070;2022-12-07T16:20:48;29.93;;;12.77;;
6513;SDS011;3290;47.716;9.070;2022-12-07T16:23:14;18.80;;;12.13;;
6513;SDS011;3290;47.716;9.070;2022-12-07T16:25:39;20.70;;;12.30;;
6513;SDS011;3290;47.716;9.070;2022-12-07T16:28:05;25.93;;;12.10;;
6513;SDS011;3290;47.716;9.070;2022-12-07T16:30:31;26.97;;;12.80;;
6513;SDS011;3290;47.716;9.070;2022-12-07T16:32:56;21.50;;;11.90;;
6513;SDS011;3290;47.716;9.070;2022-12-07T16:35:22;23.43;;;11.70;;
6513;SDS011;3290;47.716;9.070;2022-12-07T16:37:47;25.50;;;12.80;;
6513;SDS011;3290;47.716;9.070;2022-12-07T16:40:13;26.00;;;13.80;;
6513;SDS011;3290;47.716;9.070;2022-12-07T16:42:38;22.00;;;10.83;;
6513;SDS011;3290;47.716;9.070;2022-12-07T16:45:04;28.00;;;12.40;;
6513;SDS011;3290;47.716;9.070;2022-12-07T16:47:29;36.07;;;11.10;;
6513;SDS011;3290;47.716;9.070;2022-12-07T16:49:55;19.83;;;12.00;;
6513;SDS011;3290;47.716;9.070;2022-12-07T16:52:20;33.70;;;14.13;;
6513;SDS011;3290;47.716;9.070;2022-12-07T16:54:46;29.33;;;13.73;;
6513;SDS011;3290;47.716;9.070;2022-12-07T16:57:13;26.27;;;14.90;;
6513;SDS011;3290;47.716;9.070;2022-12-07T16:59:38;30.03;;;13.00;;
6513;SDS011;3290;47.716;9.070;2022-12-07T17:02:03;19.40;;;10.53;;
6513;SDS011;3290;47.716;9.070;2022-12-07T17:04:31;29.30;;;12.00;;